createdAt,value
2018-09-26T00:01:13.097Z,103121.73
2018-09-26T00:03:45.326Z,103117.70
2018-09-26T00:06:14.276Z,103114.46
2018-09-26T00:08:43.208Z,103119.46
2018-09-26T00:11:12.370Z,103118.52
2018-09-26T00:13:41.519Z,103118.81
2018-09-26T00:16:10.462Z,103115.28
2018-09-26T00:18:39.374Z,103099.11
2018-09-26T00:21:08.752Z,103101.97
2018-09-26T00:23:37.718Z,103100.73
2018-09-26T00:26:06.626Z,103103.66
2018-09-26T00:28:35.777Z,103100.97
2018-09-26T00:31:04.698Z,103098.54
2018-09-26T00:33:33.609Z,103085.60
2018-09-26T00:36:03.069Z,103084.56
2018-09-26T00:38:32.032Z,103073.14
2018-09-26T00:41:02.556Z,103067.67
2018-09-26T00:43:31.516Z,103069.95
2018-09-26T00:46:00.611Z,103083.47
2018-09-26T00:48:29.688Z,103077.37
2018-09-26T00:50:59.114Z,103081.56
2018-09-26T00:53:28.035Z,103075.53
2018-09-26T00:55:56.974Z,103073.52
2018-09-26T00:58:25.948Z,103064.98
2018-09-26T01:00:54.867Z,103054.55
2018-09-26T01:03:23.822Z,103050.22
2018-09-26T01:05:52.826Z,103040.72
2018-09-26T01:08:21.860Z,103019.34
2018-09-26T01:10:50.894Z,103013.67
2018-09-26T01:13:19.810Z,103005.77
2018-09-26T01:15:48.750Z,103011.98
2018-09-26T01:18:17.725Z,103032.30
2018-09-26T01:20:46.689Z,103026.63
2018-09-26T01:23:15.705Z,103027.80
2018-09-26T01:25:44.594Z,103017.53
2018-09-26T01:28:13.692Z,103016.63
2018-09-26T01:30:42.660Z,103018.84
2018-09-26T01:33:11.600Z,103024.52
2018-09-26T01:35:40.556Z,103033.78
2018-09-26T01:38:09.531Z,103036.09
2018-09-26T01:40:38.491Z,103032.22
2018-09-26T01:43:07.435Z,103024.14
2018-09-26T01:45:36.689Z,103026.75
2018-09-26T01:48:05.766Z,103035.64
2018-09-26T01:50:34.851Z,103037.27
2018-09-26T01:53:03.857Z,103025.78
2018-09-26T01:55:32.925Z,103031.88
2018-09-26T01:58:01.991Z,103024.41
2018-09-26T02:00:31.247Z,103016.78
2018-09-26T02:03:00.313Z,103017.11
2018-09-26T02:05:29.259Z,103007.44
2018-09-26T02:07:58.210Z,103004.41
2018-09-26T02:10:27.196Z,102994.48
2018-09-26T02:12:56.147Z,102998.16
2018-09-26T02:15:25.203Z,102998.93
2018-09-26T02:17:54.197Z,102994.76
2018-09-26T02:20:23.154Z,103004.77
2018-09-26T02:22:52.068Z,103002.52
2018-09-26T02:25:21.124Z,103002.36
2018-09-26T02:27:50.096Z,103004.47
2018-09-26T02:30:19.093Z,103003.81
2018-09-26T02:32:48.062Z,102995.65
2018-09-26T02:35:17.109Z,102989.77
2018-09-26T02:37:46.117Z,102989.41
2018-09-26T02:40:15.081Z,102979.17
2018-09-26T02:42:44.226Z,102975.09
2018-09-26T02:45:13.189Z,102979.20
2018-09-26T02:47:42.121Z,102984.55
2018-09-26T02:50:11.105Z,102979.29
2018-09-26T02:52:40.157Z,102982.52
2018-09-26T02:55:09.111Z,102974.68
2018-09-26T02:57:38.100Z,102975.80
2018-09-26T03:00:07.043Z,102971.94
2018-09-26T03:02:36.030Z,102961.59
2018-09-26T03:05:05.009Z,102949.70
2018-09-26T03:07:33.954Z,102948.67
2018-09-26T03:10:02.908Z,102959.71
2018-09-26T03:12:31.869Z,102955.59
2018-09-26T03:15:00.832Z,102956.20
2018-09-26T03:17:29.819Z,102958.03
2018-09-26T03:19:58.810Z,102962.80
2018-09-26T03:22:27.738Z,102955.01
2018-09-26T03:24:56.658Z,102956.20
2018-09-26T03:27:25.693Z,102953.84
2018-09-26T03:29:54.565Z,102942.27
2018-09-26T03:32:24.200Z,102928.37
2018-09-26T03:34:53.436Z,102922.53
2018-09-26T03:37:22.364Z,102915.30
2018-09-26T03:39:51.326Z,102909.88
2018-09-26T03:42:20.425Z,102915.98
2018-09-26T03:44:49.344Z,102921.52
2018-09-26T03:47:18.296Z,102916.70
2018-09-26T03:49:47.221Z,102914.64
2018-09-26T03:52:16.187Z,102914.06
2018-09-26T03:54:45.147Z,102926.60
2018-09-26T03:57:14.437Z,102921.41
2018-09-26T03:59:43.365Z,102921.28
2018-09-26T04:02:12.258Z,102918.70
2018-09-26T04:04:41.208Z,102910.38
2018-09-26T04:07:10.150Z,102909.47
2018-09-26T04:09:39.108Z,102909.64
2018-09-26T04:12:08.075Z,102914.21
2018-09-26T04:14:37.119Z,102917.84
2018-09-26T04:17:06.055Z,102914.38
2018-09-26T04:19:34.977Z,102907.53
2018-09-26T04:22:03.923Z,102904.67
2018-09-26T04:24:32.881Z,102903.16
2018-09-26T04:27:02.101Z,102901.44
2018-09-26T04:29:30.789Z,102900.41
2018-09-26T04:31:59.681Z,102893.39
2018-09-26T04:34:28.622Z,102892.56
2018-09-26T04:36:57.556Z,102888.41
2018-09-26T04:39:26.467Z,102882.39
2018-09-26T04:41:55.465Z,102882.80
2018-09-26T04:44:24.376Z,102878.77
2018-09-26T04:46:53.299Z,102878.05
2018-09-26T04:49:22.293Z,102874.40
2018-09-26T04:51:51.336Z,102868.75
2018-09-26T04:54:20.243Z,102858.23
2018-09-26T04:56:49.132Z,102851.62
2018-09-26T04:59:18.078Z,102842.45
2018-09-26T05:01:46.934Z,102844.74
2018-09-26T05:04:15.981Z,102849.73
2018-09-26T05:06:45.135Z,102854.86
2018-09-26T05:09:14.034Z,102847.37
2018-09-26T05:11:42.996Z,102840.01
2018-09-26T05:14:12.038Z,102830.98
2018-09-26T05:16:41.017Z,102835.81
2018-09-26T05:19:09.910Z,102828.11
2018-09-26T05:21:38.996Z,102829.59
2018-09-26T05:24:07.937Z,102825.25
2018-09-26T05:26:36.914Z,102818.86
2018-09-26T05:29:05.840Z,102819.30
2018-09-26T05:31:34.769Z,102815.20
2018-09-26T05:34:03.707Z,102799.72
2018-09-26T05:36:32.618Z,102801.34
2018-09-26T05:39:01.609Z,102802.41
2018-09-26T05:41:30.532Z,102793.02
2018-09-26T05:43:59.452Z,102800.71
2018-09-26T05:46:28.574Z,102801.94
2018-09-26T05:48:57.563Z,102806.31
2018-09-26T05:51:26.499Z,102805.55
2018-09-26T05:53:55.969Z,102807.07
2018-09-26T05:56:25.053Z,102810.38
2018-09-26T05:58:54.007Z,102806.22
2018-09-26T06:01:22.960Z,102808.38
2018-09-26T06:03:51.905Z,102796.28
2018-09-26T06:06:20.857Z,102803.02
2018-09-26T06:08:49.804Z,102789.46
2018-09-26T06:11:18.809Z,102779.41
2018-09-26T06:13:47.902Z,102769.08
2018-09-26T06:16:16.799Z,102768.00
2018-09-26T06:18:45.748Z,102763.59
2018-09-26T06:21:14.754Z,102761.94
2018-09-26T06:23:43.717Z,102755.93
2018-09-26T06:26:12.690Z,102752.72
2018-09-26T06:28:41.624Z,102736.05
2018-09-26T06:31:10.566Z,102733.16
2018-09-26T06:33:39.492Z,102727.63
2018-09-26T06:36:08.462Z,102728.55
2018-09-26T06:38:37.435Z,102724.95
2018-09-26T06:41:06.372Z,102732.64
2018-09-26T06:43:35.337Z,102739.63
2018-09-26T06:46:04.350Z,102737.30
2018-09-26T06:48:33.420Z,102733.34
2018-09-26T06:51:02.592Z,102736.06
2018-09-26T06:53:31.526Z,102745.91
2018-09-26T06:56:00.468Z,102742.31
2018-09-26T06:58:29.423Z,102740.91
2018-09-26T07:00:58.626Z,102731.22
2018-09-26T07:03:27.635Z,102728.06
2018-09-26T07:05:56.553Z,102719.91
2018-09-26T07:08:25.531Z,102728.95
2018-09-26T07:10:54.567Z,102740.14
2018-09-26T07:13:23.536Z,102745.48
2018-09-26T07:15:52.830Z,102736.93
2018-09-26T07:18:21.790Z,102732.91
2018-09-26T07:20:50.708Z,102736.84
2018-09-26T07:23:19.817Z,102745.75
2018-09-26T07:25:48.897Z,102749.73
2018-09-26T07:28:17.964Z,102760.88
2018-09-26T07:30:46.896Z,102762.81
2018-09-26T07:33:15.874Z,102761.55
2018-09-26T07:35:44.770Z,102768.09
2018-09-26T07:38:13.752Z,102781.12
2018-09-26T07:40:42.871Z,102781.52
2018-09-26T07:43:11.805Z,102784.80
2018-09-26T07:45:40.832Z,102788.06
2018-09-26T07:48:09.803Z,102785.69
2018-09-26T07:50:38.767Z,102782.84
2018-09-26T07:53:07.832Z,102782.73
2018-09-26T07:55:36.817Z,102787.42
2018-09-26T07:58:05.770Z,102789.08
2018-09-26T08:00:34.818Z,102787.72
2018-09-26T08:03:03.730Z,102774.94
2018-09-26T08:05:32.875Z,102762.92
2018-09-26T08:08:01.827Z,102758.92
2018-09-26T08:10:30.908Z,102755.85
2018-09-26T08:12:59.875Z,102751.28
2018-09-26T08:15:28.821Z,102743.70
2018-09-26T08:17:57.810Z,102741.30
2018-09-26T08:20:26.753Z,102743.99
2018-09-26T08:22:55.821Z,102737.72
2018-09-26T08:25:24.840Z,102726.27
2018-09-26T08:27:53.902Z,102739.66
2018-09-26T08:30:22.948Z,102729.47
2018-09-26T08:32:52.187Z,102727.39
2018-09-26T08:35:21.160Z,102718.84
2018-09-26T08:37:50.193Z,102723.34
2018-09-26T08:40:19.215Z,102717.72
2018-09-26T08:42:48.168Z,102715.07
2018-09-26T08:45:17.189Z,102726.66
2018-09-26T08:47:46.725Z,102720.91
2018-09-26T08:50:16.228Z,102713.59
2018-09-26T08:52:45.303Z,102718.28
2018-09-26T08:55:14.252Z,102715.05
2018-09-26T08:57:43.231Z,102718.09
2018-09-26T09:00:12.171Z,102703.97
2018-09-26T09:02:41.163Z,102701.69
2018-09-26T09:05:10.127Z,102691.31
2018-09-26T09:07:39.297Z,102682.06
2018-09-26T09:10:08.236Z,102671.94
2018-09-26T09:12:37.148Z,102679.61
2018-09-26T09:15:06.161Z,102685.44
2018-09-26T09:17:35.178Z,102677.47
2018-09-26T09:20:04.237Z,102670.33
2018-09-26T09:22:33.198Z,102664.20
2018-09-26T09:25:02.180Z,102668.05
2018-09-26T09:27:31.197Z,102675.91
2018-09-26T09:30:00.967Z,102665.62
2018-09-26T09:32:30.095Z,102677.67
2018-09-26T09:34:59.454Z,102671.02
2018-09-26T09:37:28.889Z,102677.56
2018-09-26T09:39:59.317Z,102669.06
2018-09-26T09:42:28.517Z,102669.75
2018-09-26T09:44:57.635Z,102659.95
2018-09-26T09:47:26.575Z,102652.14
2018-09-26T09:49:55.515Z,102653.48
2018-09-26T09:52:24.601Z,102652.52
2018-09-26T09:54:53.765Z,102635.19
2018-09-26T09:57:22.692Z,102642.67
2018-09-26T09:59:51.682Z,102633.44
2018-09-26T10:05:39.355Z,102613.32
2018-09-26T10:08:11.420Z,102614.25
2018-09-26T10:10:40.641Z,102622.57
2018-09-26T10:13:09.674Z,102634.70
2018-09-26T10:15:38.663Z,102628.19
2018-09-26T10:18:13.067Z,102640.74
2018-09-26T10:20:43.351Z,102630.92
2018-09-26T10:23:12.808Z,102619.47
2018-09-26T10:25:41.998Z,102627.27
2018-09-26T10:28:10.951Z,102620.72
2018-09-26T10:30:40.026Z,102610.73
2018-09-26T10:33:09.097Z,102613.91
2018-09-26T10:35:38.070Z,102600.36
2018-09-26T10:38:07.014Z,102596.36
2018-09-26T10:40:36.138Z,102597.02
2018-09-26T10:43:05.500Z,102585.25
2018-09-26T10:45:35.042Z,102595.16
2018-09-26T10:48:04.019Z,102593.83
2018-09-26T10:50:32.986Z,102579.42
2018-09-26T10:53:02.479Z,102584.81
2018-09-26T10:55:31.460Z,102582.44
2018-09-26T10:58:00.551Z,102570.98
2018-09-26T11:00:29.547Z,102583.39
2018-09-26T11:02:59.026Z,102577.09
2018-09-26T11:05:28.231Z,102582.44
2018-09-26T11:07:57.145Z,102578.87
2018-09-26T11:10:26.188Z,102576.77
2018-09-26T11:12:55.119Z,102577.55
2018-09-26T11:15:24.359Z,102577.48
2018-09-26T11:17:53.465Z,102561.34
2018-09-26T11:20:22.453Z,102551.33
2018-09-26T11:22:51.419Z,102557.69
2018-09-26T11:25:20.547Z,102532.81
2018-09-26T11:27:49.497Z,102533.81
2018-09-26T11:30:18.586Z,102535.16
2018-09-26T11:32:47.801Z,102521.10
2018-09-26T11:35:17.051Z,102519.67
2018-09-26T11:37:46.319Z,102523.41
2018-09-26T11:40:16.555Z,102525.54
2018-09-26T11:42:45.688Z,102513.86
2018-09-26T11:45:14.708Z,102512.00
2018-09-26T11:47:43.897Z,102503.85
2018-09-26T11:50:13.046Z,102499.17
2018-09-26T11:52:42.824Z,102498.50
2018-09-26T11:55:11.964Z,102492.45
2018-09-26T11:57:41.183Z,102488.38
2018-09-26T12:00:10.121Z,102500.91
2018-09-26T12:02:40.109Z,102494.48
2018-09-26T12:05:09.656Z,102490.63
2018-09-26T12:07:38.655Z,102480.27
2018-09-26T12:10:07.831Z,102491.98
2018-09-26T12:12:37.280Z,102460.48
2018-09-26T12:15:07.261Z,102472.01
2018-09-26T12:17:36.267Z,102442.22
2018-09-26T12:20:05.214Z,102433.34
2018-09-26T12:22:35.011Z,102438.12
2018-09-26T12:25:03.938Z,102429.63
2018-09-26T12:27:32.890Z,102422.98
2018-09-26T12:30:03.081Z,102413.61
2018-09-26T12:32:32.274Z,102422.53
2018-09-26T12:35:02.646Z,102421.34
2018-09-26T12:37:46.502Z,102417.10
2018-09-26T12:40:19.099Z,102412.48
2018-09-26T12:42:48.741Z,102413.50
2018-09-26T12:45:18.798Z,102415.03
2018-09-26T12:47:50.726Z,102411.47
2018-09-26T12:50:19.672Z,102396.70
2018-09-26T12:52:48.595Z,102401.38
2018-09-26T12:55:17.552Z,102394.05
2018-09-26T12:57:46.484Z,102388.33
2018-09-26T13:00:15.439Z,102371.55
2018-09-26T13:02:44.474Z,102356.95
2018-09-26T13:05:13.341Z,102354.78
2018-09-26T13:07:42.285Z,102348.55
2018-09-26T13:10:11.623Z,102350.72
2018-09-26T13:12:40.586Z,102353.61
2018-09-26T13:15:09.543Z,102362.48
2018-09-26T13:17:38.623Z,102343.75
2018-09-26T13:20:07.682Z,102345.20
2018-09-26T13:22:36.638Z,102342.94
2018-09-26T13:25:05.652Z,102340.56
2018-09-26T13:27:34.590Z,102343.80
2018-09-26T13:30:03.703Z,102354.52
2018-09-26T13:32:32.641Z,102362.48
2018-09-26T13:35:01.654Z,102361.83
2018-09-26T13:37:30.597Z,102373.03
2018-09-26T13:39:59.599Z,102363.78
2018-09-26T13:42:28.681Z,102347.97
2018-09-26T13:44:57.977Z,102350.11
2018-09-26T13:47:26.944Z,102345.16
2018-09-26T13:49:56.043Z,102352.83
2018-09-26T13:52:24.997Z,102343.84
2018-09-26T13:54:53.897Z,102353.80
2018-09-26T13:57:23.237Z,102370.89
2018-09-26T13:59:52.178Z,102359.17
2018-09-26T14:02:21.142Z,102355.77
2018-09-26T14:04:50.244Z,102347.86
2018-09-26T14:07:19.215Z,102347.25
2018-09-26T14:09:48.126Z,102350.56
2018-09-26T14:12:17.139Z,102352.49
2018-09-26T14:14:46.048Z,102341.13
2018-09-26T14:17:15.054Z,102348.36
2018-09-26T14:19:44.446Z,102336.81
2018-09-26T14:22:13.371Z,102329.27
2018-09-26T14:24:42.502Z,102334.98
2018-09-26T14:27:11.449Z,102329.27
2018-09-26T14:29:40.368Z,102325.45
2018-09-26T14:32:09.393Z,102319.90
2018-09-26T14:34:38.316Z,102324.02
2018-09-26T14:37:07.239Z,102318.64
2018-09-26T14:39:36.261Z,102307.40
2018-09-26T14:42:05.088Z,102299.11
2018-09-26T14:44:34.055Z,102311.41
2018-09-26T14:47:03.421Z,102307.08
2018-09-26T14:49:32.333Z,102318.54
2018-09-26T14:52:01.317Z,102316.63
2018-09-26T14:54:30.247Z,102310.27
2018-09-26T14:56:59.186Z,102312.61
2018-09-26T14:59:28.124Z,102295.38
2018-09-26T15:01:57.055Z,102305.16
2018-09-26T15:04:26.143Z,102313.02
2018-09-26T15:06:55.277Z,102301.47
2018-09-26T15:09:24.249Z,102291.63
2018-09-26T15:11:53.167Z,102280.16
2018-09-26T15:14:22.219Z,102287.59
2018-09-26T15:16:51.079Z,102290.59
2018-09-26T15:19:20.017Z,102288.41
2018-09-26T15:21:48.945Z,102281.94
2018-09-26T15:24:18.022Z,102288.41
2018-09-26T15:26:46.887Z,102289.95
2018-09-26T15:29:15.853Z,102286.33
2018-09-26T15:31:44.848Z,102288.86
2018-09-26T15:34:14.061Z,102286.56
2018-09-26T15:36:42.949Z,102284.23
2018-09-26T15:39:12.216Z,102287.19
2018-09-26T15:41:41.518Z,102279.59
2018-09-26T15:44:10.412Z,102283.07
2018-09-26T15:46:39.361Z,102289.25
2018-09-26T15:49:09.323Z,102289.01
2018-09-26T15:51:38.228Z,102285.59
2018-09-26T15:54:07.468Z,102275.15
2018-09-26T15:56:36.397Z,102285.65
2018-09-26T15:59:05.350Z,102289.86
2018-09-26T16:01:34.305Z,102293.80
2018-09-26T16:04:03.292Z,102290.98
2018-09-26T16:06:32.530Z,102293.84
2018-09-26T16:09:01.471Z,102291.31
2018-09-26T16:11:30.420Z,102296.08
2018-09-26T16:13:59.377Z,102292.05
2018-09-26T16:16:28.305Z,102290.56
2018-09-26T16:18:57.272Z,102301.61
2018-09-26T16:21:26.179Z,102296.97
2018-09-26T16:23:55.555Z,102290.32
2018-09-26T16:26:24.505Z,102289.01
2018-09-26T16:28:53.410Z,102290.89
2018-09-26T16:31:23.310Z,102294.30
2018-09-26T16:33:52.349Z,102302.73
2018-09-26T16:36:21.364Z,102301.48
2018-09-26T16:38:50.297Z,102304.75
2018-09-26T16:41:19.698Z,102308.12
2018-09-26T16:43:48.617Z,102308.69
2018-09-26T16:46:17.680Z,102304.75
2018-09-26T16:48:46.549Z,102311.95
2018-09-26T16:51:15.471Z,102309.98
2018-09-26T16:53:44.466Z,102310.09
2018-09-26T16:56:13.435Z,102310.12
2018-09-26T16:58:42.523Z,102309.48
2018-09-26T17:01:11.474Z,102316.97
2018-09-26T17:03:40.443Z,102315.29
2018-09-26T17:06:09.427Z,102321.97
2018-09-26T17:08:38.362Z,102320.33
2018-09-26T17:11:07.321Z,102324.22
2018-09-26T17:13:36.472Z,102318.32
2018-09-26T17:16:05.534Z,102323.89
2018-09-26T17:18:34.458Z,102315.84
2018-09-26T17:21:04.270Z,102321.92
2018-09-26T17:23:33.217Z,102317.63
2018-09-26T17:26:02.158Z,102322.21
2018-09-26T17:28:31.181Z,102331.71
2018-09-26T17:31:00.113Z,102323.38
2018-09-26T17:33:29.115Z,102325.09
2018-09-26T17:35:58.050Z,102321.13
2018-09-26T17:38:27.000Z,102330.36
2018-09-26T17:40:55.888Z,102335.16
2018-09-26T17:43:25.440Z,102334.55
2018-09-26T17:45:54.355Z,102336.23
2018-09-26T17:48:23.347Z,102331.98
2018-09-26T17:50:52.329Z,102335.55
2018-09-26T17:53:21.271Z,102335.22
2018-09-26T17:55:50.304Z,102338.06
2018-09-26T17:58:19.307Z,102342.00
2018-09-26T18:00:48.229Z,102333.44
2018-09-26T18:03:17.208Z,102334.83
2018-09-26T18:05:46.156Z,102340.36
2018-09-26T18:08:15.284Z,102333.57
2018-09-26T18:10:45.090Z,102332.27
2018-09-26T18:13:14.307Z,102337.38
2018-09-26T18:15:43.426Z,102336.55
2018-09-26T18:18:12.374Z,102330.09
2018-09-26T18:20:41.360Z,102325.22
2018-09-26T18:23:10.374Z,102321.73
2018-09-26T18:25:39.336Z,102318.10
2018-09-26T18:28:08.322Z,102320.05
2018-09-26T18:30:37.345Z,102323.16
2018-09-26T18:33:06.363Z,102315.08
2018-09-26T18:35:35.349Z,102316.38
2018-09-26T18:38:04.322Z,102315.83
2018-09-26T18:40:33.292Z,102302.55
2018-09-26T18:43:02.261Z,102305.81
2018-09-26T18:45:31.369Z,102303.69
2018-09-26T18:48:00.557Z,102303.56
2018-09-26T18:50:29.502Z,102305.69
2018-09-26T18:52:58.510Z,102308.88
2018-09-26T18:55:27.617Z,102312.31
2018-09-26T18:57:56.558Z,102300.35
2018-09-26T19:00:25.524Z,102299.84
2018-09-26T19:02:54.652Z,102298.53
2018-09-26T19:05:23.618Z,102300.33
2018-09-26T19:07:52.989Z,102304.56
2018-09-26T19:10:21.994Z,102302.27
2018-09-26T19:12:50.938Z,102301.45
2018-09-26T19:15:20.279Z,102305.31
2018-09-26T19:17:49.247Z,102296.21
2018-09-26T19:20:18.215Z,102299.60
2018-09-26T19:22:47.222Z,102304.51
2018-09-26T19:25:16.193Z,102328.09
2018-09-26T19:27:45.207Z,102323.45
2018-09-26T19:30:14.701Z,102316.50
2018-09-26T19:32:43.665Z,102323.00
2018-09-26T19:35:12.933Z,102317.47
2018-09-26T19:37:41.879Z,102314.41
2018-09-26T19:40:10.815Z,102326.62
2018-09-26T19:42:39.766Z,102321.59
2018-09-26T19:45:08.731Z,102313.00
2018-09-26T19:47:37.746Z,102319.50
2018-09-26T19:50:06.704Z,102312.48
2018-09-26T19:52:35.823Z,102318.48
2018-09-26T19:55:04.655Z,102314.41
2018-09-26T19:57:33.623Z,102319.79
2018-09-26T20:00:02.625Z,102329.11
2018-09-26T20:02:31.551Z,102340.24
2018-09-26T20:05:00.586Z,102340.02
2018-09-26T20:07:29.551Z,102331.98
2018-09-26T20:09:58.585Z,102331.98
2018-09-26T20:12:27.625Z,102335.87
2018-09-26T20:14:56.538Z,102337.88
2018-09-26T20:17:25.519Z,102331.59
2018-09-26T20:19:54.653Z,102332.16
2018-09-26T20:22:23.614Z,102320.36
2018-09-26T20:24:52.565Z,102315.95
2018-09-26T20:27:21.732Z,102313.06
2018-09-26T20:29:50.557Z,102311.83
2018-09-26T20:32:19.499Z,102322.73
2018-09-26T20:34:48.491Z,102321.98
2018-09-26T20:37:17.529Z,102317.91
2018-09-26T20:39:46.598Z,102318.25
2018-09-26T20:42:17.358Z,102317.59
2018-09-26T20:44:46.404Z,102316.55
2018-09-26T20:47:15.852Z,102307.19
2018-09-26T20:49:44.817Z,102307.42
2018-09-26T20:52:13.924Z,102302.83
2018-09-26T20:54:42.945Z,102323.19
2018-09-26T20:57:11.880Z,102321.59
2018-09-26T20:59:40.855Z,102315.39
2018-09-26T21:02:09.799Z,102316.92
2018-09-26T21:04:38.753Z,102319.92
2018-09-26T21:07:07.806Z,102311.95
2018-09-26T21:09:36.799Z,102322.12
2018-09-26T21:12:05.802Z,102321.77
2018-09-26T21:14:34.747Z,102317.27
2018-09-26T21:17:03.690Z,102331.32
2018-09-26T21:19:32.633Z,102336.91
2018-09-26T21:22:07.713Z,102331.09
2018-09-26T21:24:36.695Z,102317.87
2018-09-26T21:27:11.642Z,102329.84
2018-09-26T21:29:40.720Z,102328.55
2018-09-26T21:32:10.839Z,102328.48
2018-09-26T21:34:39.790Z,102323.77
2018-09-26T21:37:08.727Z,102323.28
2018-09-26T21:39:38.835Z,102328.94
2018-09-26T21:42:07.792Z,102317.09
2018-09-26T21:44:37.453Z,102301.94
2018-09-26T21:47:06.552Z,102300.77
2018-09-26T21:49:35.717Z,102320.41
2018-09-26T21:52:05.058Z,102313.02
2018-09-26T21:54:34.202Z,102313.69
2018-09-26T21:57:04.263Z,102312.27
2018-09-26T21:59:33.391Z,102319.57
2018-09-26T22:02:02.442Z,102321.45
2018-09-26T22:04:31.412Z,102315.50
2018-09-26T22:07:00.984Z,102315.78
2018-09-26T22:09:29.997Z,102326.41
2018-09-26T22:11:59.053Z,102322.34
2018-09-26T22:14:28.028Z,102326.13
2018-09-26T22:16:57.160Z,102328.34
2018-09-26T22:19:26.136Z,102333.77
2018-09-26T22:21:55.072Z,102332.23
2018-09-26T22:24:26.395Z,102337.44
2018-09-26T22:26:59.806Z,102333.48
2018-09-26T22:29:34.138Z,102335.33
2018-09-26T22:32:04.540Z,102332.79
2018-09-26T22:34:33.541Z,102333.36
2018-09-26T22:37:02.622Z,102331.61
2018-09-26T22:39:31.591Z,102339.17
2018-09-26T22:42:00.692Z,102325.52
2018-09-26T22:44:29.657Z,102321.83
2018-09-26T22:46:58.692Z,102327.14
2018-09-26T22:49:27.776Z,102324.66
2018-09-26T22:51:57.633Z,102325.00
2018-09-26T22:54:26.572Z,102332.13
2018-09-26T22:56:55.550Z,102327.54
2018-09-26T22:59:25.310Z,102326.80
2018-09-26T23:01:54.242Z,102321.48
2018-09-26T23:04:23.221Z,102325.95
2018-09-26T23:06:52.379Z,102314.09
2018-09-26T23:09:21.373Z,102319.30
2018-09-26T23:11:50.336Z,102312.34
2018-09-26T23:14:19.314Z,102306.31
2018-09-26T23:16:48.278Z,102302.97
2018-09-26T23:19:17.250Z,102299.06
2018-09-26T23:21:46.197Z,102307.38
2018-09-26T23:24:15.249Z,102302.45
2018-09-26T23:26:44.371Z,102291.39
2018-09-26T23:29:13.284Z,102296.81
2018-09-26T23:31:42.233Z,102300.08
2018-09-26T23:34:11.237Z,102299.80
2018-09-26T23:36:40.462Z,102294.48
2018-09-26T23:39:10.449Z,102289.06
2018-09-26T23:41:39.732Z,102289.17
2018-09-26T23:44:09.287Z,102281.90
2018-09-26T23:46:38.199Z,102274.08
2018-09-26T23:49:07.198Z,102276.13
2018-09-26T23:51:36.124Z,102278.45
2018-09-26T23:54:05.058Z,102269.42
2018-09-26T23:56:34.000Z,102281.27
2018-09-26T23:59:02.924Z,102282.98
